Time;durP1;ratioP1;P1;durP2;ratioP2;P2;SDS_P1;SDS_P2;PMS_P1;PMS_P2;Temp;Humidity;BMP_temperature;BMP_pressure;BME280_temperature;BME280_humidity;BME280_pressure;Samples;Min_cycle;Max_cycle;Signal;HPM_P1;HPM_P2
2022/03/08 00:02:17;;;;;;;31.25;20.15;;;;;;;4.71;56.38;102324.06;4749111;29;122589;-85
2022/03/08 00:04:43;;;;;;;29.92;18.80;;;;;;;4.59;55.46;102308.78;4777898;29;120504;-84
2022/03/08 00:07:08;;;;;;;28.77;18.75;;;;;;;4.65;56.31;102330.22;4779229;29;119363;-82
2022/03/08 00:09:34;;;;;;;25.15;17.33;;;;;;;4.61;56.18;102314.66;4762712;29;121474;-84
2022/03/08 00:12:00;;;;;;;33.17;19.25;;;;;;;4.54;56.39;102305.63;4775692;29;123646;-80
2022/03/08 00:14:26;;;;;;;28.27;18.38;;;;;;;4.21;56.11;102255.50;4774234;29;121269;-83
2022/03/08 00:16:51;;;;;;;26.65;17.40;;;;;;;4.54;56.38;102300.19;4761050;29;121179;-83
2022/03/08 00:19:17;;;;;;;26.27;17.27;;;;;;;4.51;55.81;102287.34;4779353;29;120546;-82
2022/03/08 00:21:43;;;;;;;25.15;17.02;;;;;;;4.54;56.57;102300.97;4775890;29;119775;-83
2022/03/08 00:24:09;;;;;;;22.88;16.63;;;;;;;4.51;56.77;102290.84;4779355;29;119800;-84
2022/03/08 00:26:35;;;;;;;27.83;16.23;;;;;;;4.39;57.10;102271.25;4777261;29;119675;-85
2022/03/08 00:29:03;;;;;;;26.67;17.60;;;;;;;4.44;56.50;102285.31;4773276;29;120623;-84
2022/03/08 00:31:29;;;;;;;26.70;18.25;;;;;;;4.48;56.31;102293.50;4779599;29;120004;-86
2022/03/08 00:33:54;;;;;;;31.00;19.25;;;;;;;4.25;55.85;102272.63;4778311;29;120504;-84
2022/03/08 00:36:21;;;;;;;27.05;18.77;;;;;;;4.34;56.07;102288.66;4780271;29;119856;-85
2022/03/08 00:38:47;;;;;;;24.83;17.73;;;;;;;4.28;55.48;102282.78;4748690;29;123927;-84
2022/03/08 00:41:12;;;;;;;25.83;17.95;;;;;;;4.15;56.06;102267.84;4782252;29;119471;-84
2022/03/08 00:43:38;;;;;;;29.92;19.25;;;;;;;4.19;56.28;102279.53;4777353;29;120551;-86
2022/03/08 00:46:04;;;;;;;31.80;18.98;;;;;;;4.16;55.97;102274.84;4759963;29;119853;-84
2022/03/08 00:48:29;;;;;;;28.13;18.63;;;;;;;4.19;56.01;102270.59;4778675;29;122097;-84
2022/03/08 00:50:55;;;;;;;28.00;18.52;;;;;;;4.01;55.66;102252.13;4760844;29;120232;-84
2022/03/08 00:53:21;;;;;;;27.10;18.05;;;;;;;4.01;55.56;102251.34;4763520;29;119778;-83
2022/03/08 00:55:46;;;;;;;27.90;17.13;;;;;;;4.08;55.53;102273.19;4773433;29;121303;-83
2022/03/08 00:58:12;;;;;;;28.80;18.17;;;;;;;4.16;55.95;102288.41;4761300;29;123261;-84
2022/03/08 01:00:40;;;;;;;28.38;17.67;;;;;;;4.03;55.77;102254.50;4783139;29;120468;-86
2022/03/08 01:03:06;;;;;;;27.92;17.27;;;;;;;4.08;56.33;102267.75;4746434;29;123658;-82
2022/03/08 01:05:32;;;;;;;26.55;16.85;;;;;;;3.94;56.07;102252.03;4763271;29;120715;-84
2022/03/08 01:07:59;;;;;;;28.38;16.90;;;;;;;4.03;56.70;102262.66;4779889;29;119700;-84
2022/03/08 01:10:25;;;;;;;24.38;16.63;;;;;;;4.10;56.30;102260.03;4761157;29;123888;-83
2022/03/08 01:12:55;;;;;;;19.13;14.30;;;;;;;4.15;56.23;102276.00;4756786;29;122366;-81
2022/03/08 01:15:23;;;;;;;25.23;15.52;;;;;;;4.06;56.20;102264.63;4774562;29;120199;-85
2022/03/08 01:17:49;;;;;;;23.73;15.75;;;;;;;3.95;56.49;102248.16;4758545;29;123477;-85
2022/03/08 01:20:15;;;;;;;24.50;15.38;;;;;;;4.16;56.19;102280.28;4772972;29;119689;-84
2022/03/08 01:22:41;;;;;;;25.80;15.70;;;;;;;4.15;55.82;102276.00;4766874;29;122264;-84
2022/03/08 01:25:11;;;;;;;24.73;15.82;;;;;;;3.85;56.00;102221.66;4763995;29;119594;-85
2022/03/08 01:27:37;;;;;;;30.15;16.00;;;;;;;3.93;55.85;102239.59;4758638;29;123508;-85
2022/03/08 01:30:06;;;;;;;23.05;15.23;;;;;;;3.92;55.87;102237.25;4772554;29;120957;-85
2022/03/08 01:32:32;;;;;;;25.23;14.30;;;;;;;3.89;55.71;102244.22;4763420;29;119419;-85
2022/03/08 01:34:57;;;;;;;24.58;14.45;;;;;;;3.89;55.64;102243.44;4763898;29;122054;-84
2022/03/08 01:37:23;;;;;;;24.45;14.63;;;;;;;3.98;56.30;102260.22;4762503;29;122737;-86
2022/03/08 01:39:51;;;;;;;22.30;13.95;;;;;;;3.91;55.83;102251.97;4779544;29;119452;-85
2022/03/08 01:42:22;;;;;;;23.83;16.08;;;;;;;3.94;56.28;102272.97;4779085;29;120369;-83
2022/03/08 01:44:48;;;;;;;22.60;15.07;;;;;;;3.79;56.12;102249.50;4779313;29;121438;-87
2022/03/08 01:47:18;;;;;;;25.90;15.02;;;;;;;3.95;55.87;102263.69;4748734;29;122142;-87
2022/03/08 01:49:44;;;;;;;23.25;14.98;;;;;;;3.99;55.93;102283.50;4756190;29;123067;-86
2022/03/08 01:52:11;;;;;;;21.70;14.95;;;;;;;3.76;56.27;102244.78;4776970;29;119481;-85
2022/03/08 01:54:37;;;;;;;25.40;15.43;;;;;;;3.85;55.96;102256.94;4747583;29;121467;-85
2022/03/08 01:57:04;;;;;;;20.33;14.32;;;;;;;3.67;56.20;102228.75;4773965;29;120149;-85
2022/03/08 01:59:30;;;;;;;22.55;14.88;;;;;;;3.74;56.00;102241.63;4760885;29;119612;-86
2022/03/08 02:01:55;;;;;;;23.17;14.48;;;;;;;3.71;56.38;102240.44;4778340;29;119989;-85
2022/03/08 02:04:21;;;;;;;23.30;15.23;;;;;;;3.60;55.99;102215.88;4763215;29;121579;-86
2022/03/08 02:06:47;;;;;;;23.52;15.02;;;;;;;3.67;55.57;102232.25;4794777;29;121233;-85
2022/03/08 02:09:13;;;;;;;23.80;16.25;;;;;;;3.65;56.36;102225.63;4746356;29;124090;-83
2022/03/08 02:11:39;;;;;;;23.25;15.77;;;;;;;3.54;55.87;102211.88;4762386;29;120322;-86
2022/03/08 02:14:05;;;;;;;22.98;14.77;;;;;;;3.82;55.77;102254.97;4763618;29;121923;-86
2022/03/08 02:16:31;;;;;;;23.67;15.65;;;;;;;3.50;56.13;102199.41;4761253;29;124932;-87
2022/03/08 02:18:56;;;;;;;23.48;15.73;;;;;;;3.64;56.75;102224.84;4777421;29;119425;-86
2022/03/08 02:21:22;;;;;;;21.88;15.20;;;;;;;3.61;56.63;102208.50;4761345;29;119426;-84
2022/03/08 02:23:48;;;;;;;24.00;14.73;;;;;;;3.62;56.13;102221.72;4776684;29;122971;-87
2022/03/08 02:26:13;;;;;;;23.65;14.95;;;;;;;3.57;56.02;102215.81;4778428;29;120234;-84
2022/03/08 02:28:41;;;;;;;27.13;15.80;;;;;;;3.63;56.38;102220.56;4765419;29;122922;-85
2022/03/08 02:31:07;;;;;;;22.63;15.20;;;;;;;3.52;56.33;102202.53;4746666;29;119677;-82
2022/03/08 02:33:33;;;;;;;22.60;13.90;;;;;;;3.51;56.06;102204.47;4761579;29;120082;-82
2022/03/08 02:36:01;;;;;;;23.67;14.90;;;;;;;3.56;55.64;102220.47;4776656;29;121852;-82
2022/03/08 02:38:27;;;;;;;22.13;15.20;;;;;;;3.54;55.99;102209.16;4762661;29;120727;-83
2022/03/08 02:40:53;;;;;;;23.45;15.60;;;;;;;3.62;56.23;102227.13;4762445;29;122192;-82
2022/03/08 02:43:19;;;;;;;21.50;14.27;;;;;;;3.51;56.19;102207.19;4761123;29;122580;-83
2022/03/08 02:45:45;;;;;;;22.48;14.80;;;;;;;3.66;55.84;102241.53;4763755;29;119723;-84
2022/03/08 02:48:11;;;;;;;23.25;14.18;;;;;;;3.49;55.97;102214.91;4776527;29;120018;-82
2022/03/08 02:50:37;;;;;;;23.85;14.50;;;;;;;3.50;55.97;102211.03;4765634;29;121308;-84
2022/03/08 02:53:04;;;;;;;19.58;14.20;;;;;;;3.63;56.18;102231.41;4761568;29;122130;-85
2022/03/08 02:55:32;;;;;;;20.70;13.93;;;;;;;3.63;55.68;102231.41;4759093;29;122879;-85
2022/03/08 02:57:58;;;;;;;21.60;14.90;;;;;;;3.63;56.35;102236.84;4773353;29;120791;-85
2022/03/08 03:00:25;;;;;;;23.00;15.20;;;;;;;3.45;56.32;102207.88;4791030;29;120174;-85
2022/03/08 03:02:52;;;;;;;20.98;14.15;;;;;;;3.62;56.23;102232.56;4761863;29;120460;-85
2022/03/08 03:05:18;;;;;;;20.38;14.80;;;;;;;3.43;55.99;102210.16;4747952;29;119638;-85
2022/03/08 03:07:44;;;;;;;23.10;14.68;;;;;;;3.47;56.09;102219.13;4775510;29;121559;-84
2022/03/08 03:10:13;;;;;;;21.10;14.15;;;;;;;3.57;56.09;102232.88;4776039;29;123928;-83
2022/03/08 03:12:39;;;;;;;23.67;14.38;;;;;;;3.55;55.74;102229.75;4764060;29;122550;-85
2022/03/08 03:15:08;;;;;;;21.13;14.00;;;;;;;3.40;55.80;102211.69;4779594;29;120287;-85
2022/03/08 03:17:34;;;;;;;21.90;14.13;;;;;;;3.36;56.22;102210.84;4779142;29;119463;-83
2022/03/08 03:19:59;;;;;;;22.55;14.68;;;;;;;3.54;55.85;102228.16;4760123;29;120262;-82
2022/03/08 03:22:25;;;;;;;20.15;14.00;;;;;;;3.27;55.85;102191.31;4782289;29;120075;-84
2022/03/08 03:24:53;;;;;;;22.10;13.77;;;;;;;3.41;56.02;102215.16;4790107;29;119747;-85
2022/03/08 03:27:19;;;;;;;20.27;13.82;;;;;;;3.36;56.17;102208.91;4762617;29;122259;-85
2022/03/08 03:29:45;;;;;;;24.10;14.18;;;;;;;3.37;56.05;102217.84;4760264;29;121051;-85
2022/03/08 03:32:10;;;;;;;20.63;14.45;;;;;;;3.39;56.07;102215.53;4764005;29;119862;-84
2022/03/08 03:34:36;;;;;;;26.48;14.27;;;;;;;3.36;55.68;102216.25;4745004;29;122691;-85
2022/03/08 03:37:01;;;;;;;22.25;14.15;;;;;;;3.39;56.00;102227.16;4761088;29;119394;-86
2022/03/08 03:39:30;;;;;;;22.23;14.57;;;;;;;3.32;55.94;102223.56;4776273;29;121985;-86
2022/03/08 03:41:55;;;;;;;17.38;13.38;;;;;;;3.23;55.76;102209.44;4763633;29;123215;-84
2022/03/08 03:44:21;;;;;;;20.70;14.05;;;;;;;3.30;56.03;102221.19;4779105;29;119945;-84
2022/03/08 03:46:46;;;;;;;20.92;13.73;;;;;;;3.22;55.67;102211.38;4764698;29;120251;-85
2022/03/08 03:49:12;;;;;;;24.88;14.85;;;;;;;3.27;55.79;102234.69;4756863;29;119700;-85
2022/03/08 03:51:37;;;;;;;23.75;14.88;;;;;;;3.28;56.07;102236.25;4750688;29;120853;-86
2022/03/08 03:54:03;;;;;;;22.60;13.90;;;;;;;3.20;55.84;102221.81;4782870;29;119717;-84
2022/03/08 03:56:29;;;;;;;22.08;14.48;;;;;;;3.21;55.80;102220.66;4779786;29;119630;-83
2022/03/08 03:58:54;;;;;;;24.58;14.25;;;;;;;3.22;56.00;102238.50;4750540;29;122691;-84
2022/03/08 04:01:20;;;;;;;22.02;13.65;;;;;;;3.36;56.28;102255.03;4763897;29;123658;-84
2022/03/08 04:03:46;;;;;;;19.70;13.75;;;;;;;3.14;55.83;102217.84;4778245;29;119583;-86
2022/03/08 04:06:12;;;;;;;20.40;14.13;;;;;;;3.29;56.00;102244.03;4751200;29;122408;-84
2022/03/08 04:08:37;;;;;;;20.15;14.02;;;;;;;3.18;55.80;102226.81;4764556;29;121023;-85
2022/03/08 04:11:03;;;;;;;21.55;14.35;;;;;;;3.13;55.94;102218.97;4779556;29;119865;-83
2022/03/08 04:13:29;;;;;;;18.92;13.48;;;;;;;3.21;56.25;102238.88;4779561;29;119881;-85
2022/03/08 04:16:05;;;;;;;24.08;13.95;;;;;;;3.23;55.86;102237.34;4768834;29;122821;-83
2022/03/08 04:18:31;;;;;;;23.35;14.57;;;;;;;3.26;55.86;102246.69;4763590;29;121987;-83
2022/03/08 04:20:57;;;;;;;21.90;14.35;;;;;;;3.18;55.84;102232.22;4778022;29;121479;-85
2022/03/08 04:23:22;;;;;;;22.50;13.80;;;;;;;3.01;55.92;102209.09;4781780;29;120796;-85
2022/03/08 04:25:48;;;;;;;19.85;13.52;;;;;;;3.05;56.01;102209.94;4777208;29;122050;-83
2022/03/08 04:28:13;;;;;;;20.67;13.93;;;;;;;3.13;55.91;102226.34;4775385;29;123641;-80
2022/03/08 04:30:39;;;;;;;19.67;13.18;;;;;;;3.19;56.07;102222.16;4779686;29;119472;-81
2022/03/08 04:33:04;;;;;;;18.65;13.52;;;;;;;3.13;55.64;102218.97;4763551;29;119749;-81
2022/03/08 04:35:30;;;;;;;17.30;13.13;;;;;;;3.07;55.32;102220.41;4777235;29;122733;-83
2022/03/08 04:37:55;;;;;;;20.83;13.00;;;;;;;3.26;55.07;102250.19;4783037;29;120863;-84
2022/03/08 04:40:21;;;;;;;21.10;13.43;;;;;;;3.08;55.09;102227.44;4778623;29;120210;-83
2022/03/08 04:42:47;;;;;;;23.20;13.35;;;;;;;3.02;55.40;102224.19;4779142;29;119515;-83
2022/03/08 04:45:14;;;;;;;21.52;13.05;;;;;;;3.10;55.77;102235.19;4779177;29;119266;-81
2022/03/08 04:47:39;;;;;;;19.60;13.65;;;;;;;3.02;56.23;102218.00;4764446;29;119859;-83
2022/03/08 04:50:07;;;;;;;21.83;14.65;;;;;;;3.22;56.05;102248.56;4791556;29;119652;-83
2022/03/08 04:52:34;;;;;;;21.60;13.85;;;;;;;2.99;56.39;102213.31;4767824;29;122193;-86
2022/03/08 04:55:00;;;;;;;17.45;12.75;;;;;;;2.99;55.44;102216.00;4762721;29;123028;-88
2022/03/08 04:57:28;;;;;;;20.55;14.13;;;;;;;3.20;55.73;102245.44;4779679;29;120633;-88
2022/03/08 04:59:55;;;;;;;22.20;14.15;;;;;;;2.92;56.30;102213.97;4765523;29;121735;-84
2022/03/08 05:02:20;;;;;;;23.17;14.52;;;;;;;3.06;56.04;102222.34;4763716;29;119585;-83
2022/03/08 05:04:46;;;;;;;21.27;13.20;;;;;;;3.18;55.81;102242.28;4779664;29;122488;-84
2022/03/08 05:07:11;;;;;;;20.38;13.65;;;;;;;3.10;56.12;102232.47;4776047;29;122893;-84
2022/03/08 05:09:37;;;;;;;20.00;13.95;;;;;;;3.00;56.38;102204.03;4745540;29;120211;-83
2022/03/08 05:12:03;;;;;;;18.90;13.10;;;;;;;3.10;56.62;102224.34;4791327;29;119772;-83
2022/03/08 05:14:29;;;;;;;22.08;14.02;;;;;;;3.18;56.95;102220.59;4777618;29;123116;-82
2022/03/08 05:16:54;;;;;;;23.27;14.57;;;;;;;3.05;56.73;102209.94;4776821;29;120589;-85
2022/03/08 05:19:20;;;;;;;21.17;14.30;;;;;;;3.23;56.53;102233.84;4765048;29;121970;-85
2022/03/08 05:21:45;;;;;;;20.73;14.35;;;;;;;3.24;56.52;102238.13;4764559;29;119708;-87
2022/03/08 05:24:11;;;;;;;19.80;13.88;;;;;;;3.07;56.32;102210.34;4761759;29;121058;-85
2022/03/08 05:26:37;;;;;;;19.83;14.25;;;;;;;3.32;56.53;102256.13;4776146;29;120262;-85
2022/03/08 05:29:04;;;;;;;21.40;14.10;;;;;;;3.14;56.51;102228.69;4762691;29;119393;-85
2022/03/08 05:31:30;;;;;;;19.30;12.93;;;;;;;3.16;55.90;102239.16;4744738;29;122087;-82
2022/03/08 05:33:55;;;;;;;19.48;13.15;;;;;;;2.98;55.54;102209.81;4772119;29;121399;-85
2022/03/08 05:36:21;;;;;;;21.20;13.13;;;;;;;2.95;55.91;102218.66;4764129;29;119724;-83
2022/03/08 05:38:46;;;;;;;21.48;13.73;;;;;;;3.07;55.64;102244.81;4761895;29;122106;-83
2022/03/08 05:41:12;;;;;;;19.15;13.20;;;;;;;3.02;55.90;102229.63;4765296;29;123497;-83
2022/03/08 05:43:37;;;;;;;20.98;13.68;;;;;;;3.03;55.67;102230.41;4776858;29;122998;-84
2022/03/08 05:46:03;;;;;;;21.27;14.77;;;;;;;2.88;55.44;102210.41;4778388;29;122538;-83
2022/03/08 05:48:29;;;;;;;23.13;15.65;;;;;;;3.01;56.18;102230.00;4778166;29;119804;-83
2022/03/08 05:50:54;;;;;;;32.45;19.05;;;;;;;3.02;56.45;102235.03;4777605;29;119347;-82
2022/03/08 05:53:20;;;;;;;29.70;15.63;;;;;;;3.08;56.46;102247.19;4778951;29;120525;-84
2022/03/08 05:55:45;;;;;;;21.65;13.85;;;;;;;3.02;55.88;102236.97;4776481;29;119529;-83
2022/03/08 05:58:11;;;;;;;21.25;14.60;;;;;;;3.04;56.25;102240.88;4762477;29;120198;-87
2022/03/08 06:00:37;;;;;;;22.83;13.27;;;;;;;2.87;55.89;102206.13;4762260;29;121900;-86
2022/03/08 06:03:03;;;;;;;21.77;13.82;;;;;;;2.94;56.34;102222.53;4767468;29;119485;-86
2022/03/08 06:05:28;;;;;;;22.00;13.43;;;;;;;3.00;56.30;102223.78;4776607;29;123506;-86
2022/03/08 06:07:54;;;;;;;19.13;13.75;;;;;;;2.92;56.34;102213.19;4778225;29;119694;-87
2022/03/08 06:10:19;;;;;;;19.38;13.85;;;;;;;3.06;55.59;102241.31;4756316;29;121921;-85
2022/03/08 06:12:45;;;;;;;21.25;14.55;;;;;;;2.97;56.28;102229.16;4775415;29;123066;-86
2022/03/08 06:15:11;;;;;;;19.95;13.63;;;;;;;2.94;55.92;102225.22;4779547;29;119351;-86
2022/03/08 06:17:37;;;;;;;20.92;14.73;;;;;;;3.05;56.44;102245.16;4764505;29;121897;-87
2022/03/08 06:20:03;;;;;;;19.77;13.50;;;;;;;3.11;56.24;102253.03;4789727;29;119949;-87
2022/03/08 06:22:29;;;;;;;23.67;13.25;;;;;;;3.12;56.74;102244.53;4791681;29;119824;-85
2022/03/08 06:24:54;;;;;;;22.98;13.93;;;;;;;3.16;56.76;102245.38;4765966;29;120498;-85
2022/03/08 06:27:20;;;;;;;21.67;14.40;;;;;;;3.24;56.87;102257.13;4764192;29;119882;-86
2022/03/08 06:29:51;;;;;;;20.23;14.23;;;;;;;3.21;56.88;102245.06;4777616;29;120486;-86
2022/03/08 06:32:19;;;;;;;23.65;14.50;;;;;;;3.36;57.02;102257.75;4761832;29;123005;-85
2022/03/08 06:34:44;;;;;;;21.20;14.60;;;;;;;3.16;57.38;102218.25;4778207;29;125336;-83
2022/03/08 06:37:10;;;;;;;23.83;15.43;;;;;;;3.44;57.67;102242.34;4778336;29;119400;-84
2022/03/08 06:39:35;;;;;;;24.00;15.02;;;;;;;3.48;57.32;102240.47;4773275;29;119774;-82
2022/03/08 06:42:01;;;;;;;21.92;15.35;;;;;;;3.57;57.32;102245.66;4776964;29;119471;-82
2022/03/08 06:44:26;;;;;;;21.50;14.68;;;;;;;3.65;57.22;102252.75;4771660;29;119926;-83
2022/03/08 06:46:52;;;;;;;20.27;15.40;;;;;;;3.49;57.82;102220.34;4780453;29;120249;-82
2022/03/08 06:49:18;;;;;;;20.98;15.07;;;;;;;3.64;57.72;102234.91;4776172;29;120130;-83
2022/03/08 06:51:43;;;;;;;22.58;15.75;;;;;;;3.66;58.06;102230.69;4778215;29;119942;-83
2022/03/08 06:54:09;;;;;;;22.48;15.63;;;;;;;3.63;58.15;102217.84;4775269;29;119490;-85
2022/03/08 06:56:36;;;;;;;23.23;15.30;;;;;;;3.84;58.09;102244.53;4777535;29;119307;-85
2022/03/08 06:59:02;;;;;;;22.98;15.52;;;;;;;3.87;58.76;102243.00;4761624;29;122527;-84
2022/03/08 07:01:28;;;;;;;22.33;15.75;;;;;;;4.14;58.58;102277.16;4761476;29;119817;-84
2022/03/08 07:03:54;;;;;;;20.20;14.80;;;;;;;4.19;58.75;102276.81;4772409;29;119833;-84
2022/03/08 07:06:19;;;;;;;23.60;16.33;;;;;;;4.12;58.91;102256.94;4790575;29;119715;-83
2022/03/08 07:08:45;;;;;;;24.27;16.20;;;;;;;4.09;58.95;102236.72;4781824;29;119608;-84
2022/03/08 07:11:11;;;;;;;25.75;17.50;;;;;;;4.09;59.60;102231.31;4776089;29;119730;-84
2022/03/08 07:13:36;;;;;;;25.13;16.63;;;;;;;4.37;59.19;102262.69;4762284;29;120705;-84
2022/03/08 07:16:03;;;;;;;21.52;15.70;;;;;;;4.51;59.12;102282.69;4777359;29;119490;-85
2022/03/08 07:18:29;;;;;;;27.13;17.50;;;;;;;4.48;59.77;102263.59;4764950;29;119842;-84
2022/03/08 07:20:55;;;;;;;23.13;17.10;;;;;;;4.48;60.17;102263.59;4765624;29;119833;-85
2022/03/08 07:23:21;;;;;;;22.52;16.52;;;;;;;4.52;59.93;102253.59;4780706;29;120040;-86
2022/03/08 07:25:46;;;;;;;22.65;16.73;;;;;;;4.62;59.98;102259.13;4763062;29;122610;-85
2022/03/08 07:28:12;;;;;;;20.25;16.98;;;;;;;4.79;60.19;102276.81;4781262;29;119804;-86
2022/03/08 07:30:38;;;;;;;25.48;16.58;;;;;;;4.80;59.73;102256.63;4779432;29;120074;-85
2022/03/08 07:33:03;;;;;;;20.88;16.30;;;;;;;4.93;59.98;102260.63;4781217;29;121473;-85
2022/03/08 07:35:29;;;;;;;19.55;15.65;;;;;;;5.14;60.05;102286.47;4764350;29;122494;-84
2022/03/08 07:37:55;;;;;;;21.08;15.23;;;;;;;5.05;60.08;102253.38;4780081;29;119878;-85
2022/03/08 07:40:20;;;;;;;17.73;14.38;;;;;;;5.15;59.86;102239.88;4764659;29;120414;-85
2022/03/08 07:42:46;;;;;;;17.42;14.00;;;;;;;5.19;60.07;102237.94;4766391;29;120007;-86
2022/03/08 07:45:13;;;;;;;20.38;13.52;;;;;;;5.36;59.68;102257.53;4762509;29;122835;-86
2022/03/08 07:47:39;;;;;;;20.05;13.38;;;;;;;5.43;59.69;102252.94;4764393;29;119367;-84
2022/03/08 07:50:06;;;;;;;17.55;13.05;;;;;;;5.65;59.58;102275.66;4784105;29;119548;-85
2022/03/08 07:52:31;;;;;;;18.02;13.43;;;;;;;5.70;59.59;102258.22;4778764;29;123022;-85
2022/03/08 07:54:57;;;;;;;16.90;12.85;;;;;;;5.75;59.82;102253.19;4778262;29;120210;-84
2022/03/08 07:57:25;;;;;;;16.38;12.20;;;;;;;5.81;59.02;102240.00;4778841;29;122632;-84
2022/03/08 07:59:50;;;;;;;16.17;11.65;;;;;;;5.95;59.03;102256.47;4749799;29;119978;-84
2022/03/08 08:02:19;;;;;;;18.73;11.52;;;;;;;6.01;58.66;102241.31;4760391;29;121714;-83
2022/03/08 08:04:44;;;;;;;21.23;11.50;;;;;;;5.99;57.99;102219.13;4778029;29;122825;-83
2022/03/08 08:07:10;;;;;;;24.63;13.07;;;;;;;6.21;58.37;102238.31;4764411;29;119844;-84
2022/03/08 08:09:37;;;;;;;19.33;12.15;;;;;;;6.33;57.90;102233.28;4789417;29;121107;-82
2022/03/08 08:12:03;;;;;;;24.63;12.57;;;;;;;6.44;57.53;102247.75;4775841;29;123067;-82
2022/03/08 08:14:28;;;;;;;20.52;11.95;;;;;;;6.69;57.48;102269.66;4763825;29;122253;-84
2022/03/08 08:16:54;;;;;;;18.80;11.50;;;;;;;6.81;57.20;102273.19;4776726;29;120953;-82
2022/03/08 08:19:19;;;;;;;15.70;10.77;;;;;;;6.89;57.40;102261.94;4760178;29;120257;-83
2022/03/08 08:21:45;;;;;;;20.17;11.68;;;;;;;6.86;57.16;102248.25;4778127;29;120010;-83
2022/03/08 08:24:11;;;;;;;20.05;11.20;;;;;;;7.04;56.64;102273.63;4774827;29;122207;-82
2022/03/08 08:26:36;;;;;;;17.27;10.25;;;;;;;7.13;57.00;102270.56;4764197;29;119921;-83
2022/03/08 08:29:02;;;;;;;17.25;10.30;;;;;;;7.28;57.41;102281.09;4776812;29;121545;-82
2022/03/08 08:31:30;;;;;;;15.93;10.20;;;;;;;7.21;56.84;102248.34;4778470;29;119837;-82
2022/03/08 08:33:57;;;;;;;14.52;10.13;;;;;;;7.38;56.50;102257.72;4788641;29;124387;-82
2022/03/08 08:36:22;;;;;;;12.32;9.23;;;;;;;7.59;56.06;102271.38;4775374;29;119891;-82
2022/03/08 08:38:48;;;;;;;12.70;9.05;;;;;;;7.61;56.48;102255.38;4778476;29;120572;-82
2022/03/08 08:41:13;;;;;;;10.73;8.93;;;;;;;7.74;55.71;102253.00;4760765;29;121758;-83
2022/03/08 08:43:39;;;;;;;12.45;9.02;;;;;;;7.61;54.92;102219.09;4783434;29;120145;-82
2022/03/08 08:46:05;;;;;;;12.48;8.02;;;;;;;7.95;54.49;102258.44;4761927;29;119741;-82
2022/03/08 08:48:30;;;;;;;9.98;7.95;;;;;;;8.01;54.59;102261.53;4779425;29;120572;-81
2022/03/08 08:50:56;;;;;;;9.70;8.02;;;;;;;8.04;54.73;102238.09;4758226;29;122772;-82
2022/03/08 08:53:22;;;;;;;10.98;8.02;;;;;;;8.11;53.61;102235.38;4784153;29;121143;-82
2022/03/08 08:55:49;;;;;;;15.63;8.55;;;;;;;8.16;54.32;102235.72;4782956;29;119693;-82
2022/03/08 08:58:15;;;;;;;10.50;7.22;;;;;;;8.26;54.08;102245.84;4773872;29;120521;-82
2022/03/08 09:00:40;;;;;;;15.60;7.53;;;;;;;8.31;52.80;102234.50;4761694;29;122280;-81
2022/03/08 09:03:14;;;;;;;12.90;7.20;;;;;;;8.48;53.28;102246.56;4762996;29;122384;-81
2022/03/08 09:05:46;;;;;;;15.68;7.18;;;;;;;8.65;52.67;102258.63;4762283;29;120474;-81
2022/03/08 09:08:16;;;;;;;11.07;5.90;;;;;;;8.57;50.84;102243.41;4777935;29;120141;-80
2022/03/08 09:10:41;;;;;;;10.65;5.70;;;;;;;8.82;50.57;102265.19;4774951;29;119960;-81
2022/03/08 09:13:07;;;;;;;11.10;6.10;;;;;;;8.83;50.53;102256.56;4776335;29;119731;-82
2022/03/08 09:15:35;;;;;;;9.20;5.35;;;;;;;8.90;49.38;102251.03;4780906;29;121416;-82
2022/03/08 09:18:05;;;;;;;10.30;5.28;;;;;;;8.85;50.08;102240.53;4777725;29;119689;-81
2022/03/08 09:20:31;;;;;;;9.65;5.50;;;;;;;9.07;50.85;102265.81;4778689;29;119413;-81
2022/03/08 09:22:56;;;;;;;10.82;6.20;;;;;;;9.04;50.23;102238.47;4775362;29;120243;-81
2022/03/08 09:25:22;;;;;;;9.95;5.45;;;;;;;9.04;50.31;102228.28;4777472;29;119582;-82
2022/03/08 09:27:48;;;;;;;10.98;5.38;;;;;;;9.23;49.19;102248.88;4763091;29;119928;-82
2022/03/08 09:30:17;;;;;;;11.13;5.00;;;;;;;9.30;47.79;102256.25;4756705;29;121793;-81
2022/03/08 09:32:43;;;;;;;7.00;4.57;;;;;;;9.41;47.67;102267.91;4777158;29;121754;-82
2022/03/08 09:35:09;;;;;;;8.68;4.40;;;;;;;9.48;47.78;102268.63;4779730;29;120263;-81
2022/03/08 09:37:34;;;;;;;6.88;4.65;;;;;;;9.46;47.44;102253.75;4795498;29;121839;-81
2022/03/08 09:40:02;;;;;;;5.72;4.50;;;;;;;9.62;47.47;102259.50;4760236;29;122163;-81
2022/03/08 09:42:29;;;;;;;8.00;5.13;;;;;;;9.55;47.97;102234.91;4776300;29;122967;-81
2022/03/08 09:44:55;;;;;;;5.78;4.47;;;;;;;9.77;46.12;102265.63;4779379;29;119437;-81
2022/03/08 09:47:23;;;;;;;8.02;4.88;;;;;;;9.74;45.73;102248.06;4789259;29;120711;-82
2022/03/08 09:49:50;;;;;;;9.10;4.65;;;;;;;9.73;46.83;102234.75;4775871;29;122957;-81
2022/03/08 09:52:17;;;;;;;7.80;5.25;;;;;;;9.81;47.77;102250.72;4775607;29;120324;-81
2022/03/08 09:54:43;;;;;;;9.82;5.57;;;;;;;9.96;45.54;102265.06;4775378;29;119588;-81
2022/03/08 09:57:10;;;;;;;10.75;6.85;;;;;;;10.07;46.67;102270.44;4775243;29;119857;-81
2022/03/08 09:59:36;;;;;;;8.90;6.50;;;;;;;10.00;46.24;102254.06;4782159;29;120516;-80
2022/03/08 10:02:02;;;;;;;7.75;5.40;;;;;;;10.21;45.73;102270.31;4776016;29;120262;-81
2022/03/08 10:04:29;;;;;;;6.35;4.85;;;;;;;10.27;46.94;102268.66;4773312;29;119706;-81
2022/03/08 10:06:56;;;;;;;6.78;4.50;;;;;;;10.18;44.96;102243.69;4791199;29;119875;-81
2022/03/08 10:09:22;;;;;;;6.13;4.18;;;;;;;10.38;44.81;102263.03;4777088;29;119909;-80
2022/03/08 10:11:53;;;;;;;5.32;3.80;;;;;;;10.24;44.15;102227.56;4775815;29;119965;-80
2022/03/08 10:14:47;;;;;;;7.50;4.18;;;;;;;10.49;44.16;102260.19;4775239;29;121884;-81
2022/03/08 10:17:39;;;;;;;5.38;4.03;;;;;;;10.45;44.43;102244.56;4773426;29;120152;-81
2022/03/08 10:20:06;;;;;;;6.53;4.32;;;;;;;10.37;45.79;102225.81;4778788;29;119915;-80
2022/03/08 10:22:35;;;;;;;6.28;3.95;;;;;;;10.65;45.73;102255.66;4793438;29;122308;-81
2022/03/08 10:25:22;;;;;;;7.22;4.22;;;;;;;10.64;45.31;102242.34;4774461;29;122330;-80
2022/03/08 10:27:53;;;;;;;6.45;4.22;;;;;;;10.76;43.62;102252.75;4783562;29;121580;-80
2022/03/08 10:30:24;;;;;;;6.78;4.30;;;;;;;10.66;43.90;102232.53;4765576;29;120893;-80
2022/03/08 10:32:53;;;;;;;8.90;5.40;;;;;;;10.57;44.55;102206.75;4773394;29;119942;-80
2022/03/08 10:35:22;;;;;;;6.53;4.45;;;;;;;10.71;43.21;102214.81;4759096;29;123285;-80
2022/03/08 10:37:48;;;;;;;6.32;4.70;;;;;;;10.83;45.15;102233.44;4774920;29;120050;-80
2022/03/08 10:40:22;;;;;;;6.85;4.40;;;;;;;11.02;44.44;102246.50;4757327;29;120285;-80
2022/03/08 10:42:58;;;;;;;4.85;4.00;;;;;;;11.02;44.35;102240.22;4770747;29;122967;-80
2022/03/08 10:45:27;;;;;;;6.63;3.88;;;;;;;11.08;44.33;102244.84;4780668;29;119990;-80
2022/03/08 10:47:54;;;;;;;6.43;4.10;;;;;;;11.15;43.02;102240.44;4762315;29;122464;-80
2022/03/08 10:50:28;;;;;;;6.07;4.13;;;;;;;11.20;43.42;102242.72;4775241;29;120685;-80
2022/03/08 10:52:55;;;;;;;6.70;3.70;;;;;;;11.25;42.86;102254.00;4776756;29;119878;-80
2022/03/08 10:55:22;;;;;;;5.95;4.00;;;;;;;11.30;42.72;102239.00;4777474;29;120846;-80
2022/03/08 10:57:50;;;;;;;7.45;4.03;;;;;;;11.25;42.60;102234.78;4773900;29;120352;-80
2022/03/08 11:00:20;;;;;;;5.15;3.38;;;;;;;11.34;43.49;102235.00;4776051;29;119398;-80
2022/03/08 11:02:54;;;;;;;5.97;3.17;;;;;;;11.37;42.87;102236.16;4777561;29;119799;-80
2022/03/08 11:05:22;;;;;;;4.35;3.20;;;;;;;11.34;44.09;102225.97;4790639;29;119857;-80
2022/03/08 11:07:47;;;;;;;5.78;3.60;;;;;;;11.44;43.67;102236.03;4778495;29;119630;-80
2022/03/08 11:10:14;;;;;;;5.43;3.40;;;;;;;11.35;42.79;102222.81;4775323;29;119967;-80